createdAt,value
2024-01-24T00:00:29.373Z,99.99
2024-01-24T00:01:29.381Z,99.99
2024-01-24T00:02:29.364Z,99.99
2024-01-24T00:03:29.362Z,99.99
2024-01-24T00:04:29.397Z,99.99
2024-01-24T00:05:29.386Z,99.99
2024-01-24T00:06:29.306Z,99.99
2024-01-24T00:07:29.314Z,99.99
2024-01-24T00:08:29.303Z,99.99
2024-01-24T00:09:29.310Z,99.99
2024-01-24T00:10:29.272Z,99.99
2024-01-24T00:11:29.249Z,99.99
2024-01-24T00:12:29.277Z,99.99
2024-01-24T00:13:29.226Z,99.99
2024-01-24T00:14:29.211Z,99.99
2024-01-24T00:15:29.282Z,99.99
2024-01-24T00:16:29.794Z,99.99
2024-01-24T00:17:29.215Z,99.99
2024-01-24T00:18:29.386Z,99.99
2024-01-24T00:19:29.276Z,99.99
2024-01-24T00:20:29.140Z,99.99
2024-01-24T00:21:29.267Z,99.99
2024-01-24T00:22:29.129Z,99.99
2024-01-24T00:23:29.111Z,99.99
2024-01-24T00:24:29.127Z,99.99
2024-01-24T00:25:29.117Z,99.99
2024-01-24T00:26:29.519Z,99.99
2024-01-24T00:27:29.104Z,99.99
2024-01-24T00:28:29.064Z,99.99
2024-01-24T00:29:29.057Z,99.99
2024-01-24T00:30:29.145Z,99.99
2024-01-24T00:31:29.083Z,99.99
2024-01-24T00:32:29.077Z,99.99
2024-01-24T00:33:29.060Z,99.99
2024-01-24T00:34:29.041Z,99.99
2024-01-24T00:35:29.030Z,99.99
2024-01-24T00:36:28.995Z,99.99
2024-01-24T00:37:29.005Z,99.99
2024-01-24T00:38:28.959Z,99.99
2024-01-24T00:39:29.010Z,99.99
2024-01-24T00:40:28.939Z,99.99
2024-01-24T00:41:28.945Z,99.99
2024-01-24T00:42:28.956Z,99.99
2024-01-24T00:43:28.926Z,99.99
2024-01-24T00:44:28.931Z,99.99
2024-01-24T00:45:28.913Z,99.99
2024-01-24T00:46:28.902Z,99.99
2024-01-24T00:47:28.878Z,99.99
2024-01-24T00:48:28.900Z,99.99
2024-01-24T00:49:28.978Z,99.99
2024-01-24T00:50:28.834Z,99.99
2024-01-24T00:51:28.910Z,99.99
2024-01-24T00:52:28.828Z,99.99
2024-01-24T00:53:28.856Z,99.99
2024-01-24T00:54:28.816Z,99.99
2024-01-24T00:55:28.783Z,99.99
2024-01-24T00:56:28.814Z,99.99
2024-01-24T00:57:28.776Z,99.99
2024-01-24T00:58:28.782Z,99.99
2024-01-24T00:59:28.740Z,99.99
2024-01-24T01:00:28.744Z,99.99
2024-01-24T01:01:28.723Z,99.99
2024-01-24T01:02:28.743Z,99.99
2024-01-24T01:03:28.789Z,99.99
2024-01-24T01:04:28.702Z,99.99
2024-01-24T01:05:28.688Z,99.99
2024-01-24T01:06:28.729Z,99.99
2024-01-24T01:07:28.667Z,99.99
2024-01-24T01:08:28.675Z,99.99
2024-01-24T01:09:29.015Z,99.99
2024-01-24T01:10:28.643Z,99.99
2024-01-24T01:11:28.617Z,99.99
2024-01-24T01:12:28.692Z,99.99
2024-01-24T01:13:28.586Z,99.99
2024-01-24T01:14:29.026Z,99.99
2024-01-24T01:15:28.598Z,99.99
2024-01-24T01:16:28.619Z,99.99
2024-01-24T01:17:28.550Z,99.99
2024-01-24T01:18:28.604Z,99.99
2024-01-24T01:19:28.530Z,99.99
2024-01-24T01:20:28.534Z,99.99
2024-01-24T01:21:28.580Z,99.99
2024-01-24T01:22:28.551Z,99.99
2024-01-24T01:23:28.497Z,99.99
2024-01-24T01:24:28.498Z,99.99
2024-01-24T01:25:28.468Z,99.99
2024-01-24T01:26:28.463Z,99.99
2024-01-24T01:27:28.484Z,99.99
2024-01-24T01:28:28.449Z,99.99
2024-01-24T01:29:28.406Z,99.99
2024-01-24T01:30:28.488Z,99.86
2024-01-24T01:31:28.405Z,99.86
2024-01-24T01:32:28.472Z,99.76
2024-01-24T01:33:28.600Z,99.86
2024-01-24T01:34:28.575Z,99.86
2024-01-24T01:35:28.377Z,99.66
2024-01-24T01:36:28.373Z,99.86
2024-01-24T01:37:28.350Z,99.86
2024-01-24T01:38:28.358Z,99.99
2024-01-24T01:39:28.347Z,99.99
2024-01-24T01:40:28.322Z,99.99
2024-01-24T01:41:28.306Z,99.99
2024-01-24T01:42:28.361Z,99.99
2024-01-24T01:43:28.313Z,99.99
2024-01-24T01:44:28.378Z,99.99
2024-01-24T01:45:28.287Z,99.99
2024-01-24T01:46:28.268Z,99.99
2024-01-24T01:47:28.233Z,99.99
2024-01-24T01:48:28.455Z,99.99
2024-01-24T01:49:28.325Z,99.99
2024-01-24T01:50:28.220Z,99.99
2024-01-24T01:51:28.303Z,99.99
2024-01-24T01:52:28.181Z,99.99
2024-01-24T01:53:28.183Z,99.99
2024-01-24T01:54:28.176Z,99.99
2024-01-24T01:55:28.160Z,99.99
2024-01-24T01:56:28.163Z,99.99
2024-01-24T01:57:28.180Z,99.99
2024-01-24T01:58:28.140Z,99.99
2024-01-24T01:59:28.110Z,99.99
2024-01-24T02:00:28.220Z,99.99
2024-01-24T02:01:28.305Z,99.99
2024-01-24T02:02:28.113Z,99.99
2024-01-24T02:03:28.220Z,99.99
2024-01-24T02:04:28.157Z,99.99
2024-01-24T02:05:28.072Z,99.99
2024-01-24T02:06:28.194Z,99.99
2024-01-24T02:07:28.160Z,99.99
2024-01-24T02:08:28.040Z,99.99
2024-01-24T02:09:28.069Z,99.99
2024-01-24T02:10:28.009Z,99.99
2024-01-24T02:11:27.991Z,99.99
2024-01-24T02:12:28.044Z,99.99
2024-01-24T02:13:27.976Z,99.99
2024-01-24T02:14:27.955Z,99.99
2024-01-24T02:15:28.040Z,99.99
2024-01-24T02:16:27.936Z,99.99
2024-01-24T02:17:27.955Z,99.99
2024-01-24T02:18:28.027Z,99.99
2024-01-24T02:19:27.932Z,99.99
2024-01-24T02:20:27.879Z,99.99
2024-01-24T02:21:27.901Z,99.99
2024-01-24T02:22:27.891Z,99.99
2024-01-24T02:23:27.952Z,99.99
2024-01-24T02:24:27.867Z,99.99
2024-01-24T02:25:27.845Z,99.99
2024-01-24T02:26:27.837Z,99.99
2024-01-24T02:27:27.828Z,99.99
2024-01-24T02:28:27.798Z,99.99
2024-01-24T02:29:27.808Z,99.99
2024-01-24T02:30:27.809Z,99.99
2024-01-24T02:31:27.780Z,99.99
2024-01-24T02:32:27.788Z,99.99
2024-01-24T02:33:27.832Z,99.99
2024-01-24T02:34:27.855Z,99.99
2024-01-24T02:35:27.766Z,99.99
2024-01-24T02:36:27.871Z,99.99
2024-01-24T02:37:27.699Z,99.99
2024-01-24T02:38:27.709Z,99.99
2024-01-24T02:39:27.754Z,99.99
2024-01-24T02:40:27.672Z,99.99
2024-01-24T02:41:27.702Z,99.99
2024-01-24T02:42:27.664Z,99.99
2024-01-24T02:43:27.660Z,99.99
2024-01-24T02:44:27.623Z,99.99
2024-01-24T02:45:27.697Z,99.99
2024-01-24T02:46:27.629Z,99.99
2024-01-24T02:47:27.632Z,99.99
2024-01-24T02:48:27.632Z,99.99
2024-01-24T02:49:27.769Z,99.99
2024-01-24T02:50:27.581Z,99.99
2024-01-24T02:51:27.603Z,99.99
2024-01-24T02:52:27.555Z,99.99
2024-01-24T02:53:27.561Z,99.99
2024-01-24T02:54:27.549Z,99.99
2024-01-24T02:55:27.521Z,99.99
2024-01-24T02:56:27.515Z,99.99
2024-01-24T02:57:27.498Z,99.99
2024-01-24T02:58:27.500Z,99.99
2024-01-24T02:59:27.462Z,99.99
2024-01-24T03:00:27.479Z,99.99
2024-01-24T03:01:27.537Z,99.99
2024-01-24T03:02:27.447Z,99.99
2024-01-24T03:03:27.475Z,99.99
2024-01-24T03:04:27.498Z,99.99
2024-01-24T03:05:27.423Z,99.99
2024-01-24T03:06:27.478Z,99.99
2024-01-24T03:07:27.490Z,99.99
2024-01-24T03:08:27.396Z,99.99
2024-01-24T03:09:27.422Z,99.99
2024-01-24T03:10:27.358Z,99.99
2024-01-24T03:11:27.374Z,99.99
2024-01-24T03:12:27.366Z,99.99
2024-01-24T03:13:27.394Z,99.99
2024-01-24T03:14:27.333Z,99.99
2024-01-24T03:15:27.333Z,99.99
2024-01-24T03:16:27.293Z,99.99
2024-01-24T03:17:27.349Z,99.99
2024-01-24T03:18:27.330Z,99.99
2024-01-24T03:19:27.421Z,99.99
2024-01-24T03:20:27.249Z,99.99
2024-01-24T03:21:27.282Z,99.99
2024-01-24T03:22:27.236Z,99.99
2024-01-24T03:23:27.243Z,99.99
2024-01-24T03:24:27.264Z,99.99
2024-01-24T03:25:27.183Z,99.99
2024-01-24T03:26:27.245Z,99.99
2024-01-24T03:27:27.213Z,99.99
2024-01-24T03:28:27.165Z,99.99
2024-01-24T03:29:27.189Z,99.99
2024-01-24T03:30:27.190Z,99.99
2024-01-24T03:31:27.140Z,99.99
2024-01-24T03:32:27.164Z,99.99
2024-01-24T03:33:27.148Z,99.99
2024-01-24T03:34:27.170Z,99.99
2024-01-24T03:35:27.093Z,99.99
2024-01-24T03:36:27.153Z,99.99
2024-01-24T03:37:27.078Z,99.99
2024-01-24T03:38:27.094Z,99.99
2024-01-24T03:39:27.113Z,99.99
2024-01-24T03:40:27.043Z,99.99
2024-01-24T03:41:27.018Z,99.99
2024-01-24T03:42:27.045Z,99.99
2024-01-24T03:43:27.061Z,99.99
2024-01-24T03:44:27.014Z,99.99
2024-01-24T03:45:27.008Z,99.99
2024-01-24T03:46:27.140Z,99.99
2024-01-24T03:47:27.008Z,99.99
2024-01-24T03:48:27.050Z,99.99
2024-01-24T03:49:27.072Z,99.99
2024-01-24T03:50:26.940Z,99.99
2024-01-24T03:51:26.963Z,99.99
2024-01-24T03:52:26.920Z,99.99
2024-01-24T03:53:26.978Z,99.99
2024-01-24T03:54:26.900Z,99.99
2024-01-24T03:55:26.899Z,99.99
2024-01-24T03:56:26.906Z,99.99
2024-01-24T03:57:26.924Z,99.99
2024-01-24T03:58:26.856Z,99.99
2024-01-24T03:59:26.901Z,99.99
2024-01-24T04:00:26.892Z,99.99
2024-01-24T04:01:26.909Z,99.99
2024-01-24T04:02:26.800Z,99.99
2024-01-24T04:03:26.909Z,99.99
2024-01-24T04:04:26.889Z,99.99
2024-01-24T04:05:26.804Z,99.99
2024-01-24T04:06:26.904Z,99.99
2024-01-24T04:07:26.867Z,99.99
2024-01-24T04:08:26.754Z,99.99
2024-01-24T04:09:26.834Z,99.99
2024-01-24T04:10:26.741Z,99.99
2024-01-24T04:11:26.776Z,99.99
2024-01-24T04:12:27.183Z,99.99
2024-01-24T04:13:26.700Z,99.99
2024-01-24T04:14:26.687Z,99.99
2024-01-24T04:15:26.762Z,99.99
2024-01-24T04:16:26.679Z,99.99
2024-01-24T04:17:26.761Z,99.99
2024-01-24T04:18:26.758Z,99.99
2024-01-24T04:19:26.737Z,99.99
2024-01-24T04:20:26.611Z,99.99
2024-01-24T04:21:26.638Z,99.99
2024-01-24T04:22:26.617Z,99.99
2024-01-24T04:23:26.634Z,99.99
2024-01-24T04:24:26.630Z,99.99
2024-01-24T04:25:26.561Z,99.99
2024-01-24T04:26:26.572Z,99.99
2024-01-24T04:27:26.559Z,99.99
2024-01-24T04:28:26.554Z,99.99
2024-01-24T04:29:26.567Z,99.99
2024-01-24T04:30:26.588Z,99.99
2024-01-24T04:31:26.515Z,99.99
2024-01-24T04:32:26.522Z,99.99
2024-01-24T04:33:26.655Z,99.99
2024-01-24T04:34:26.665Z,99.99
2024-01-24T04:35:26.475Z,99.99
2024-01-24T04:36:26.473Z,99.99
2024-01-24T04:37:26.455Z,99.99
2024-01-24T04:38:26.461Z,99.99
2024-01-24T04:39:26.474Z,99.99
2024-01-24T04:40:26.439Z,99.99
2024-01-24T04:41:26.418Z,99.99
2024-01-24T04:42:26.486Z,99.99
2024-01-24T04:43:26.412Z,99.99
2024-01-24T04:44:26.393Z,99.99
2024-01-24T04:45:26.400Z,99.99
2024-01-24T04:46:26.350Z,99.99
2024-01-24T04:47:26.362Z,99.99
2024-01-24T04:48:26.445Z,99.99
2024-01-24T04:49:34.890Z,99.99
2024-01-24T04:50:26.410Z,99.99
2024-01-24T04:51:26.314Z,99.99
2024-01-24T04:52:26.282Z,99.99
2024-01-24T04:53:26.299Z,99.99
2024-01-24T04:54:26.282Z,99.99
2024-01-24T04:55:26.255Z,99.99
2024-01-24T04:56:26.253Z,99.99
2024-01-24T04:57:26.306Z,99.99
2024-01-24T04:58:26.229Z,99.99
2024-01-24T04:59:26.218Z,99.99
2024-01-24T05:00:26.202Z,99.99
2024-01-24T05:01:26.285Z,99.99
2024-01-24T05:02:26.183Z,99.99
2024-01-24T05:03:26.197Z,99.99
2024-01-24T05:04:26.167Z,99.99
2024-01-24T05:05:26.181Z,99.99
2024-01-24T05:06:26.242Z,99.99
2024-01-24T05:07:26.154Z,99.99
2024-01-24T05:08:26.117Z,99.99
2024-01-24T05:09:26.122Z,99.99
2024-01-24T05:10:26.090Z,99.99
2024-01-24T05:11:26.077Z,99.99
2024-01-24T05:12:26.118Z,99.99
2024-01-24T05:13:26.070Z,99.99
2024-01-24T05:14:26.028Z,99.99
2024-01-24T05:15:26.061Z,99.99
2024-01-24T05:16:26.032Z,99.99
2024-01-24T05:17:26.044Z,99.99
2024-01-24T05:18:26.154Z,99.99
2024-01-24T05:19:26.059Z,99.99
2024-01-24T05:20:26.000Z,99.99
2024-01-24T05:21:26.001Z,99.99
2024-01-24T05:22:26.007Z,99.99
2024-01-24T05:23:25.960Z,99.95
2024-01-24T05:24:25.953Z,99.99
2024-01-24T05:25:25.928Z,99.99
2024-01-24T05:26:25.930Z,99.95
2024-01-24T05:27:25.936Z,99.74
2024-01-24T05:28:25.937Z,99.33
2024-01-24T05:29:25.924Z,99.64
2024-01-24T05:30:35.001Z,99.74
2024-01-24T05:31:25.918Z,99.54
2024-01-24T05:32:25.888Z,99.13
2024-01-24T05:33:25.922Z,98.82
2024-01-24T05:34:25.936Z,98.61
2024-01-24T05:35:25.857Z,99.02
2024-01-24T05:36:25.843Z,98.82
2024-01-24T05:37:25.804Z,98.72
2024-01-24T05:38:25.823Z,98.41
2024-01-24T05:39:25.814Z,98.41
2024-01-24T05:40:25.793Z,98.61
2024-01-24T05:41:25.758Z,98.31
2024-01-24T05:42:25.758Z,98.21
2024-01-24T05:43:25.733Z,98.31
2024-01-24T05:44:25.738Z,98.31
2024-01-24T05:45:25.751Z,98.41
2024-01-24T05:46:25.711Z,98.00
2024-01-24T05:47:26.503Z,98.11
2024-01-24T05:48:25.843Z,97.80
2024-01-24T05:49:25.913Z,97.80
2024-01-24T05:50:25.674Z,98.00
2024-01-24T05:51:25.756Z,97.70
2024-01-24T05:52:25.639Z,97.54
2024-01-24T05:53:25.655Z,96.37
2024-01-24T05:54:25.665Z,94.84
2024-01-24T05:55:25.655Z,94.43
2024-01-24T05:56:25.642Z,94.64
2024-01-24T05:57:25.673Z,94.33
2024-01-24T05:58:25.598Z,94.43
2024-01-24T05:59:25.578Z,94.53
2024-01-24T06:00:25.675Z,94.23
2024-01-24T06:01:25.690Z,94.74
2024-01-24T06:02:25.566Z,93.82
2024-01-24T06:03:25.572Z,93.82
2024-01-24T06:04:25.672Z,93.41
2024-01-24T06:05:25.587Z,92.39
2024-01-24T06:06:25.649Z,91.47
2024-01-24T06:07:25.694Z,90.86
2024-01-24T06:08:25.485Z,90.55
2024-01-24T06:09:25.477Z,89.84
2024-01-24T06:10:25.461Z,89.63
2024-01-24T06:11:25.441Z,89.63
2024-01-24T06:12:25.471Z,88.31
2024-01-24T06:13:25.451Z,87.18
2024-01-24T06:14:25.429Z,87.70
2024-01-24T06:15:25.447Z,87.38
2024-01-24T06:16:25.405Z,87.18
2024-01-24T06:17:25.419Z,86.26
2024-01-24T06:18:25.449Z,86.16
2024-01-24T06:19:25.578Z,86.82
2024-01-24T06:20:25.356Z,86.77
2024-01-24T06:21:25.369Z,86.47
2024-01-24T06:22:25.326Z,87.59
2024-01-24T06:23:25.317Z,86.41
2024-01-24T06:24:25.329Z,86.36
2024-01-24T06:25:25.314Z,86.06
2024-01-24T06:26:25.298Z,87.18
2024-01-24T06:27:25.273Z,87.12
2024-01-24T06:28:25.272Z,86.82
2024-01-24T06:30:15.157Z,87.53
2024-01-24T06:30:29.648Z,87.32
2024-01-24T06:31:25.280Z,86.41
2024-01-24T06:32:25.242Z,85.89
2024-01-24T06:33:25.403Z,85.96
2024-01-24T06:34:25.389Z,86.06
2024-01-24T06:35:25.205Z,86.26
2024-01-24T06:36:25.218Z,84.94
2024-01-24T06:37:25.160Z,85.38
2024-01-24T06:38:25.154Z,86.06
2024-01-24T06:39:25.215Z,85.59
2024-01-24T06:40:25.152Z,84.77
2024-01-24T06:41:25.126Z,84.83
2024-01-24T06:42:25.124Z,85.08
2024-01-24T06:43:25.152Z,85.38
2024-01-24T06:44:25.107Z,84.98
2024-01-24T06:45:25.450Z,84.67
2024-01-24T06:46:25.102Z,84.12
2024-01-24T06:47:25.098Z,84.53
2024-01-24T06:48:25.106Z,83.81
2024-01-24T06:49:25.124Z,84.01
2024-01-24T06:50:25.063Z,84.53
2024-01-24T06:51:25.039Z,85.04
2024-01-24T06:52:25.013Z,84.88
2024-01-24T06:53:25.020Z,84.12
2024-01-24T06:54:25.034Z,84.12
2024-01-24T06:55:24.998Z,84.42
2024-01-24T06:56:24.970Z,84.22
2024-01-24T06:57:25.024Z,84.42
2024-01-24T06:58:24.942Z,84.01
2024-01-24T06:59:24.957Z,84.83
2024-01-24T07:00:24.963Z,84.12
2024-01-24T07:01:24.941Z,84.33
2024-01-24T07:02:24.846Z,84.01
2024-01-24T07:03:24.926Z,84.83
2024-01-24T07:04:24.887Z,84.83
2024-01-24T07:05:24.822Z,85.24
2024-01-24T07:06:24.909Z,85.28
2024-01-24T07:07:24.867Z,85.28
2024-01-24T07:08:24.778Z,85.69
2024-01-24T07:10:44.649Z,85.89
2024-01-24T07:11:45.486Z,85.28
2024-01-24T07:12:45.577Z,85.79
2024-01-24T07:13:45.494Z,85.28
2024-01-24T07:14:45.449Z,85.59
2024-01-24T07:15:45.508Z,86.10
2024-01-24T07:16:45.470Z,85.89
2024-01-24T07:17:45.566Z,86.30
2024-01-24T07:18:45.492Z,86.20
2024-01-24T07:19:45.482Z,86.91
2024-01-24T07:20:45.417Z,87.23
2024-01-24T07:21:45.405Z,86.61
2024-01-24T07:22:45.402Z,87.12
2024-01-24T07:23:45.363Z,87.32
2024-01-24T07:24:45.570Z,86.51
2024-01-24T07:25:45.359Z,86.71
2024-01-24T07:26:45.355Z,86.51
2024-01-24T07:27:45.384Z,86.10
2024-01-24T07:28:45.318Z,86.41
2024-01-24T07:29:45.314Z,85.69
2024-01-24T07:30:45.334Z,86.51
2024-01-24T07:31:45.355Z,85.79
2024-01-24T07:32:45.311Z,86.00
2024-01-24T07:33:45.374Z,85.59
2024-01-24T07:34:45.325Z,85.79
2024-01-24T07:35:45.266Z,84.57
2024-01-24T07:36:45.312Z,84.88
2024-01-24T07:37:45.286Z,84.98
2024-01-24T07:38:45.215Z,85.28
2024-01-24T07:39:45.221Z,84.77
2024-01-24T07:40:45.215Z,85.08
2024-01-24T07:41:45.200Z,85.22
2024-01-24T07:42:45.238Z,84.61
2024-01-24T07:43:45.176Z,84.67
2024-01-24T07:44:45.184Z,84.47
2024-01-24T07:45:45.161Z,84.41
2024-01-24T07:46:45.158Z,84.41
2024-01-24T07:47:45.212Z,83.59
2024-01-24T07:48:45.224Z,82.42
2024-01-24T07:49:45.363Z,83.24
2024-01-24T07:50:45.109Z,82.56
2024-01-24T07:51:45.117Z,82.56
2024-01-24T07:52:45.193Z,82.56
2024-01-24T07:53:45.068Z,82.46
2024-01-24T07:54:45.093Z,82.15
2024-01-24T07:55:53.600Z,81.24
2024-01-24T07:56:45.042Z,81.54
2024-01-24T07:57:45.244Z,82.15
2024-01-24T07:58:45.135Z,81.34
2024-01-24T07:59:45.033Z,81.65
2024-01-24T08:00:45.012Z,81.95
2024-01-24T08:01:45.178Z,82.26
2024-01-24T08:02:44.980Z,81.99
2024-01-24T08:03:45.719Z,81.79
2024-01-24T08:04:45.082Z,81.07
2024-01-24T08:05:44.993Z,81.58
2024-01-24T08:06:44.966Z,81.99
2024-01-24T08:07:44.937Z,81.48
2024-01-24T08:08:44.940Z,81.38
2024-01-24T08:09:44.953Z,81.58
2024-01-24T08:10:44.888Z,81.38
2024-01-24T08:11:44.872Z,81.58
2024-01-24T08:12:44.937Z,81.07
2024-01-24T08:13:44.895Z,81.27
2024-01-24T08:14:44.832Z,81.17
2024-01-24T08:15:44.860Z,80.87
2024-01-24T08:16:44.849Z,81.17
2024-01-24T08:17:44.881Z,82.20
2024-01-24T08:18:44.853Z,81.48
2024-01-24T08:19:44.871Z,82.03
2024-01-24T08:20:44.787Z,81.62
2024-01-24T08:21:44.819Z,81.51
2024-01-24T08:22:44.787Z,81.48
2024-01-24T08:23:49.534Z,81.58
2024-01-24T08:24:44.789Z,81.58
2024-01-24T08:25:44.768Z,81.27
2024-01-24T08:26:46.882Z,81.17
2024-01-24T08:27:44.786Z,81.07
2024-01-24T08:28:44.808Z,80.76
2024-01-24T08:29:44.702Z,81.27
2024-01-24T08:30:44.740Z,81.07
2024-01-24T08:31:44.697Z,81.38
2024-01-24T08:32:44.748Z,80.87
2024-01-24T08:33:46.501Z,81.38
2024-01-24T08:34:44.729Z,81.38
2024-01-24T08:35:44.655Z,80.56
2024-01-24T08:36:44.665Z,80.87
2024-01-24T08:37:44.610Z,80.87
2024-01-24T08:38:44.626Z,81.38
2024-01-24T08:39:44.710Z,81.48
2024-01-24T08:40:44.614Z,81.41
2024-01-24T08:41:44.576Z,80.69
2024-01-24T08:42:44.575Z,81.07
2024-01-24T08:43:44.550Z,81.27
2024-01-24T08:44:44.538Z,80.35
2024-01-24T08:45:44.845Z,81.38
2024-01-24T08:46:44.517Z,81.07
2024-01-24T08:47:44.566Z,81.17
2024-01-24T08:48:44.603Z,81.38
2024-01-24T08:49:44.559Z,81.07
2024-01-24T08:50:44.486Z,80.35
2024-01-24T08:51:44.519Z,80.66
2024-01-24T08:52:44.451Z,81.07
2024-01-24T08:53:44.481Z,80.46
2024-01-24T08:55:44.467Z,81.79
2024-01-24T08:56:44.407Z,81.48
2024-01-24T08:57:44.435Z,81.68
2024-01-24T08:58:44.427Z,81.58
2024-01-24T08:59:44.395Z,81.38
2024-01-24T09:00:44.409Z,81.68
2024-01-24T09:01:44.522Z,81.27
2024-01-24T09:02:44.380Z,81.27
2024-01-24T09:03:44.393Z,81.07
2024-01-24T09:04:44.563Z,80.93
2024-01-24T09:05:44.345Z,81.03
2024-01-24T09:06:44.599Z,81.34
2024-01-24T09:07:44.437Z,80.52
2024-01-24T09:08:44.318Z,80.73
2024-01-24T09:09:44.596Z,81.07
2024-01-24T09:10:44.280Z,80.76
2024-01-24T09:11:50.666Z,81.48
2024-01-24T09:12:44.359Z,81.38
2024-01-24T09:13:44.253Z,81.27
2024-01-24T09:14:44.259Z,81.27
2024-01-24T09:15:44.291Z,80.66
2024-01-24T09:16:44.191Z,80.05
2024-01-24T09:17:44.259Z,80.56
2024-01-24T09:18:44.355Z,80.46
2024-01-24T09:19:44.243Z,80.56
2024-01-24T09:20:44.157Z,80.46
2024-01-24T09:21:44.217Z,80.56
2024-01-24T09:22:44.151Z,80.25
2024-01-24T09:23:44.167Z,80.25
2024-01-24T09:24:44.125Z,80.35
2024-01-24T09:25:44.115Z,80.25
2024-01-24T09:26:44.110Z,79.94
2024-01-24T09:27:44.178Z,79.64
2024-01-24T09:28:44.078Z,79.13
2024-01-24T09:29:44.132Z,79.09
2024-01-24T09:30:44.800Z,79.60
2024-01-24T09:31:44.055Z,79.29
2024-01-24T09:32:44.186Z,79.91
2024-01-24T09:33:44.224Z,80.01
2024-01-24T09:34:44.573Z,79.91
2024-01-24T09:35:44.160Z,79.91
2024-01-24T09:36:44.052Z,79.09
2024-01-24T09:37:44.007Z,79.50
2024-01-24T09:38:43.970Z,80.11
2024-01-24T09:39:44.011Z,78.88
2024-01-24T09:40:43.997Z,78.88
2024-01-24T09:41:43.951Z,79.09
2024-01-24T09:42:44.072Z,78.38
2024-01-24T09:43:43.981Z,78.07
2024-01-24T09:44:43.916Z,78.17
2024-01-24T09:45:43.976Z,78.99
2024-01-24T09:46:43.899Z,78.17
2024-01-24T09:47:45.330Z,78.17
2024-01-24T09:48:43.957Z,78.27
2024-01-24T09:49:43.973Z,77.86
2024-01-24T09:50:43.872Z,79.39
2024-01-24T09:51:43.865Z,79.70
2024-01-24T09:52:47.172Z,77.86
2024-01-24T09:53:43.859Z,78.27
2024-01-24T09:54:43.854Z,78.58
2024-01-24T09:55:43.809Z,78.48
2024-01-24T09:56:43.982Z,79.09
2024-01-24T09:57:43.807Z,78.88
2024-01-24T09:58:43.774Z,78.88
2024-01-24T09:59:43.801Z,79.39
2024-01-24T10:00:43.830Z,78.78
2024-01-24T10:01:43.805Z,78.68
2024-01-24T10:02:43.760Z,79.19
2024-01-24T10:03:43.852Z,78.99
2024-01-24T10:04:43.888Z,78.88
2024-01-24T10:05:43.745Z,78.99
2024-01-24T10:06:43.787Z,78.48
2024-01-24T10:07:43.745Z,78.88
2024-01-24T10:08:43.691Z,78.78
2024-01-24T10:09:43.809Z,78.07
2024-01-24T10:10:43.674Z,78.68
2024-01-24T10:11:43.660Z,78.07
2024-01-24T10:12:43.670Z,78.38
2024-01-24T10:13:43.649Z,78.58
2024-01-24T10:14:43.597Z,78.17
2024-01-24T10:15:43.668Z,77.66
2024-01-24T10:16:44.303Z,78.17
2024-01-24T10:17:43.731Z,77.56
2024-01-24T10:18:43.702Z,78.07
2024-01-24T10:19:43.726Z,78.48
2024-01-24T10:20:43.561Z,78.27
2024-01-24T10:21:43.611Z,77.56
2024-01-24T10:22:43.645Z,77.25
2024-01-24T10:23:43.521Z,77.76
2024-01-24T10:24:43.527Z,78.48
2024-01-24T10:25:43.561Z,78.27
2024-01-24T10:26:43.514Z,78.88
2024-01-24T10:27:43.688Z,78.17
2024-01-24T10:28:43.508Z,78.27
2024-01-24T10:29:43.457Z,78.78
2024-01-24T10:30:43.509Z,78.88
2024-01-24T10:31:43.531Z,78.88
2024-01-24T10:32:43.474Z,78.48
2024-01-24T10:33:43.490Z,78.58
2024-01-24T10:34:43.446Z,77.45
2024-01-24T10:35:43.424Z,77.72
2024-01-24T10:36:44.160Z,78.75
2024-01-24T10:37:43.388Z,78.27
2024-01-24T10:38:43.369Z,78.17
2024-01-24T10:39:43.379Z,77.66
2024-01-24T10:40:43.347Z,77.66
2024-01-24T10:41:43.352Z,78.34
2024-01-24T10:42:43.450Z,78.13
2024-01-24T10:43:43.340Z,77.42
2024-01-24T10:44:43.305Z,77.42
2024-01-24T10:45:43.331Z,77.31
2024-01-24T10:46:43.299Z,77.52
2024-01-24T10:47:43.310Z,77.62
2024-01-24T10:48:43.370Z,76.90
2024-01-24T10:49:43.350Z,77.31
2024-01-24T10:50:43.261Z,77.42
2024-01-24T10:51:43.280Z,77.31
2024-01-24T10:52:43.222Z,76.81
2024-01-24T10:53:43.254Z,77.11
2024-01-24T10:54:43.259Z,77.42
2024-01-24T10:55:43.188Z,76.90
2024-01-24T10:56:43.511Z,77.01
2024-01-24T10:57:43.591Z,76.90
2024-01-24T10:58:43.197Z,76.40
2024-01-24T10:59:43.153Z,76.40
2024-01-24T11:00:43.193Z,76.90
2024-01-24T11:01:43.204Z,76.40
2024-01-24T11:02:43.335Z,77.22
2024-01-24T11:03:43.186Z,76.29
2024-01-24T11:04:43.115Z,76.60
2024-01-24T11:05:43.185Z,76.90
2024-01-24T11:06:43.122Z,77.22
2024-01-24T11:07:43.101Z,76.81
2024-01-24T11:08:47.234Z,77.31
2024-01-24T11:09:43.104Z,76.90
2024-01-24T11:10:43.033Z,76.09
2024-01-24T11:11:43.023Z,75.99
2024-01-24T11:12:43.023Z,76.09
2024-01-24T11:13:44.012Z,76.19
2024-01-24T11:14:43.018Z,76.09
2024-01-24T11:15:43.006Z,76.40
2024-01-24T11:16:42.973Z,75.27
2024-01-24T11:17:43.036Z,75.24
2024-01-24T11:18:43.004Z,75.34
2024-01-24T11:19:43.071Z,75.24
2024-01-24T11:20:42.921Z,74.52
2024-01-24T11:21:42.991Z,74.93
2024-01-24T11:22:42.941Z,74.63
2024-01-24T11:23:42.899Z,74.63
2024-01-24T11:24:42.927Z,75.24
2024-01-24T11:25:42.872Z,74.83
2024-01-24T11:26:42.887Z,74.42
2024-01-24T11:27:42.908Z,74.32
2024-01-24T11:28:42.884Z,74.01
2024-01-24T11:29:42.852Z,74.08
2024-01-24T11:30:42.865Z,74.38
2024-01-24T11:31:42.818Z,75.51
2024-01-24T11:32:42.904Z,76.53
2024-01-24T11:33:42.869Z,76.43
2024-01-24T11:34:42.924Z,75.10
2024-01-24T11:35:42.782Z,75.61
2024-01-24T11:36:42.826Z,75.10
2024-01-24T11:37:42.750Z,74.49
2024-01-24T11:38:42.764Z,73.67
2024-01-24T11:39:42.744Z,74.38
2024-01-24T11:40:42.759Z,73.67
2024-01-24T11:41:42.795Z,73.98
2024-01-24T11:42:42.722Z,74.18
2024-01-24T11:43:42.723Z,74.18
2024-01-24T11:44:42.728Z,73.98
2024-01-24T11:45:42.708Z,73.81
2024-01-24T11:46:42.692Z,74.63
2024-01-24T11:47:42.788Z,75.04
2024-01-24T11:48:42.857Z,75.54
2024-01-24T11:49:42.697Z,75.75
2024-01-24T11:50:42.641Z,74.87
2024-01-24T11:51:42.682Z,75.37
2024-01-24T11:52:42.675Z,75.68
2024-01-24T11:53:42.609Z,75.48
2024-01-24T11:54:42.644Z,75.89
2024-01-24T11:55:42.648Z,76.29
2024-01-24T11:56:42.651Z,75.27
2024-01-24T11:57:42.615Z,74.97
2024-01-24T11:58:42.689Z,75.99
2024-01-24T11:59:42.631Z,75.89
2024-01-24T12:00:42.584Z,75.89
2024-01-24T12:01:42.537Z,75.58
2024-01-24T12:02:42.530Z,75.78
2024-01-24T12:03:42.552Z,75.58
2024-01-24T12:04:42.579Z,75.89
2024-01-24T12:05:42.502Z,76.19
2024-01-24T12:06:42.537Z,76.09
2024-01-24T12:07:42.509Z,76.09
2024-01-24T12:08:42.484Z,75.21
2024-01-24T12:09:42.500Z,74.87
2024-01-24T12:10:42.416Z,75.07
2024-01-24T12:11:42.429Z,74.97
2024-01-24T12:12:42.443Z,75.51
2024-01-24T12:13:42.398Z,75.82
2024-01-24T12:14:42.407Z,74.97
2024-01-24T12:15:42.402Z,75.07
2024-01-24T12:16:42.384Z,74.69
2024-01-24T12:17:42.400Z,75.82
2024-01-24T12:18:42.659Z,75.62
2024-01-24T12:19:42.456Z,75.41
2024-01-24T12:20:42.374Z,75.00
2024-01-24T12:21:42.331Z,75.31
2024-01-24T12:22:42.301Z,75.31
2024-01-24T12:23:42.288Z,75.82
2024-01-24T12:24:42.351Z,75.31
2024-01-24T12:25:42.251Z,76.12
2024-01-24T12:26:42.685Z,74.80
2024-01-24T12:27:42.276Z,75.62
2024-01-24T12:28:42.232Z,75.92
2024-01-24T12:29:42.235Z,76.53
2024-01-24T12:30:42.266Z,75.10
2024-01-24T12:31:42.210Z,75.82
2024-01-24T12:32:42.225Z,75.41
2024-01-24T12:33:42.310Z,75.62
2024-01-24T12:34:42.300Z,74.90
2024-01-24T12:35:42.166Z,75.10
2024-01-24T12:36:42.193Z,75.71
2024-01-24T12:37:42.145Z,74.49
2024-01-24T12:38:42.134Z,74.18
2024-01-24T12:39:42.119Z,74.90
2024-01-24T12:40:42.099Z,75.31
2024-01-24T12:41:42.118Z,75.41
2024-01-24T12:42:42.384Z,74.69
2024-01-24T12:43:42.097Z,75.41
2024-01-24T12:44:42.099Z,75.51
2024-01-24T12:45:42.127Z,75.82
2024-01-24T12:46:42.044Z,75.51
2024-01-24T12:47:42.100Z,75.41
2024-01-24T12:48:42.285Z,75.41
2024-01-24T12:49:42.202Z,75.62
2024-01-24T12:50:42.095Z,74.90
2024-01-24T12:51:42.010Z,75.82
2024-01-24T12:52:42.010Z,76.23
2024-01-24T12:53:42.032Z,75.62
2024-01-24T12:54:42.017Z,76.12